sensor_id;sensor_type;location;lat;lon;timestamp;pressure;altitude;pressure_sealevel;temperature;humidity
58955;BME280;45815;52.334;5.024;2023-03-15T00:00:00;101136.50;;;3.37;100.00
58955;BME280;45815;52.334;5.024;2023-03-15T00:02:25;101093.16;;;3.02;100.00
58955;BME280;45815;52.334;5.024;2023-03-15T00:04:50;101137.16;;;3.33;100.00
58955;BME280;45815;52.334;5.024;2023-03-15T00:07:19;101138.44;;;3.25;100.00
58955;BME280;45815;52.334;5.024;2023-03-15T00:09:50;101149.53;;;3.23;100.00
58955;BME280;45815;52.334;5.024;2023-03-15T00:12:16;101152.31;;;3.26;100.00
58955;BME280;45815;52.334;5.024;2023-03-15T00:14:41;101157.41;;;3.24;100.00
58955;BME280;45815;52.334;5.024;2023-03-15T00:17:07;101163.09;;;3.17;100.00
58955;BME280;45815;52.334;5.024;2023-03-15T00:19:32;101166.41;;;3.14;100.00
58955;BME280;45815;52.334;5.024;2023-03-15T00:21:58;101166.66;;;3.19;100.00
58955;BME280;45815;52.334;5.024;2023-03-15T00:24:23;101162.44;;;3.21;100.00
58955;BME280;45815;52.334;5.024;2023-03-15T00:26:48;101172.09;;;3.24;100.00
58955;BME280;45815;52.334;5.024;2023-03-15T00:29:14;101169.50;;;3.24;100.00
58955;BME280;45815;52.334;5.024;2023-03-15T00:31:40;101167.69;;;3.23;100.00
58955;BME280;45815;52.334;5.024;2023-03-15T00:34:05;101181.00;;;3.29;100.00
58955;BME280;45815;52.334;5.024;2023-03-15T00:36:31;101178.41;;;3.29;100.00
58955;BME280;45815;52.334;5.024;2023-03-15T00:38:57;101188.88;;;3.30;100.00
58955;BME280;45815;52.334;5.024;2023-03-15T00:41:23;101187.97;;;3.30;100.00
58955;BME280;45815;52.334;5.024;2023-03-15T00:43:48;101184.44;;;3.28;100.00
58955;BME280;45815;52.334;5.024;2023-03-15T00:46:15;101187.81;;;3.27;100.00
58955;BME280;45815;52.334;5.024;2023-03-15T00:48:41;101193.88;;;3.27;100.00
58955;BME280;45815;52.334;5.024;2023-03-15T00:51:13;101193.72;;;3.24;100.00
58955;BME280;45815;52.334;5.024;2023-03-15T00:53:41;101189.44;;;3.25;100.00
58955;BME280;45815;52.334;5.024;2023-03-15T00:56:10;101205.09;;;3.26;100.00
58955;BME280;45815;52.334;5.024;2023-03-15T00:58:36;101200.88;;;3.28;100.00
58955;BME280;45815;52.334;5.024;2023-03-15T01:01:16;101209.38;;;3.26;100.00
58955;BME280;45815;52.334;5.024;2023-03-15T01:03:43;101196.22;;;3.23;100.00
58955;BME280;45815;52.334;5.024;2023-03-15T01:06:14;101214.38;;;3.23;100.00
58955;BME280;45815;52.334;5.024;2023-03-15T01:08:40;101219.56;;;3.23;100.00
58955;BME280;45815;52.334;5.024;2023-03-15T01:11:09;101221.19;;;3.21;100.00
58955;BME280;45815;52.334;5.024;2023-03-15T01:13:35;101218.28;;;3.14;100.00
58955;BME280;45815;52.334;5.024;2023-03-15T01:16:01;101227.19;;;3.20;100.00
58955;BME280;45815;52.334;5.024;2023-03-15T01:18:27;101222.16;;;3.23;100.00
58955;BME280;45815;52.334;5.024;2023-03-15T01:20:52;101223.97;;;3.24;100.00
58955;BME280;45815;52.334;5.024;2023-03-15T01:23:18;101230.94;;;3.25;100.00
58955;BME280;45815;52.334;5.024;2023-03-15T01:25:45;101234.34;;;3.24;100.00
58955;BME280;45815;52.334;5.024;2023-03-15T01:28:11;101237.81;;;3.24;100.00
58955;BME280;45815;52.334;5.024;2023-03-15T01:30:37;101223.47;;;3.14;100.00
58955;BME280;45815;52.334;5.024;2023-03-15T01:33:02;101244.53;;;3.21;100.00
58955;BME280;45815;52.334;5.024;2023-03-15T01:35:27;101251.53;;;3.22;100.00
58955;BME280;45815;52.334;5.024;2023-03-15T01:37:53;101253.13;;;3.20;100.00
58955;BME280;45815;52.334;5.024;2023-03-15T01:40:19;101257.34;;;3.17;100.00
58955;BME280;45815;52.334;5.024;2023-03-15T01:48:17;101263.72;;;3.08;100.00
58955;BME280;45815;52.334;5.024;2023-03-15T01:50:43;101265.50;;;3.09;100.00
58955;BME280;45815;52.334;5.024;2023-03-15T01:53:09;101268.81;;;3.06;100.00
58955;BME280;45815;52.334;5.024;2023-03-15T01:55:36;101275.72;;;3.06;100.00
58955;BME280;45815;52.334;5.024;2023-03-15T01:58:09;101271.97;;;3.01;100.00
58955;BME280;45815;52.334;5.024;2023-03-15T02:00:39;101281.63;;;3.03;100.00
58955;BME280;45815;52.334;5.024;2023-03-15T02:03:16;101279.66;;;2.99;100.00
58955;BME280;45815;52.334;5.024;2023-03-15T02:05:51;101283.22;;;3.01;100.00
58955;BME280;45815;52.334;5.024;2023-03-15T02:08:44;101286.66;;;3.00;100.00
58955;BME280;45815;52.334;5.024;2023-03-15T02:11:12;101285.09;;;3.04;100.00
58955;BME280;45815;52.334;5.024;2023-03-15T02:13:39;101291.09;;;3.03;100.00
58955;BME280;45815;52.334;5.024;2023-03-15T02:16:07;101295.22;;;2.99;100.00
58955;BME280;45815;52.334;5.024;2023-03-15T02:18:40;101302.94;;;2.98;100.00
58955;BME280;45815;52.334;5.024;2023-03-15T02:21:27;101303.66;;;2.95;100.00
58955;BME280;45815;52.334;5.024;2023-03-15T02:24:24;101305.78;;;2.87;100.00
58955;BME280;45815;52.334;5.024;2023-03-15T02:26:55;101290.94;;;2.85;100.00
58955;BME280;45815;52.334;5.024;2023-03-15T02:29:25;101307.66;;;2.90;100.00
58955;BME280;45815;52.334;5.024;2023-03-15T02:31:53;101304.06;;;2.88;100.00
58955;BME280;45815;52.334;5.024;2023-03-15T02:34:19;101317.03;;;2.88;100.00
58955;BME280;45815;52.334;5.024;2023-03-15T02:36:50;101317.03;;;2.88;100.00
58955;BME280;45815;52.334;5.024;2023-03-15T02:39:18;101314.19;;;2.83;100.00
58955;BME280;45815;52.334;5.024;2023-03-15T02:41:48;101316.97;;;2.86;100.00
58955;BME280;45815;52.334;5.024;2023-03-15T02:44:23;101318.47;;;2.83;100.00
58955;BME280;45815;52.334;5.024;2023-03-15T02:46:52;101324.66;;;2.85;100.00
58955;BME280;45815;52.334;5.024;2023-03-15T02:49:22;101329.66;;;2.82;100.00
58955;BME280;45815;52.334;5.024;2023-03-15T02:51:50;101331.28;;;2.80;100.00
58955;BME280;45815;52.334;5.024;2023-03-15T02:54:15;101331.28;;;2.80;100.00
58955;BME280;45815;52.334;5.024;2023-03-15T02:56:41;101333.75;;;2.78;100.00
58955;BME280;45815;52.334;5.024;2023-03-15T02:59:06;101341.25;;;2.73;100.00
58955;BME280;45815;52.334;5.024;2023-03-15T03:01:32;101341.91;;;2.69;100.00
58955;BME280;45815;52.334;5.024;2023-03-15T03:04:01;101349.41;;;2.65;100.00
58955;BME280;45815;52.334;5.024;2023-03-15T03:06:27;101350.13;;;2.62;100.00
58955;BME280;45815;52.334;5.024;2023-03-15T03:08:53;101359.41;;;2.59;100.00
58955;BME280;45815;52.334;5.024;2023-03-15T03:11:19;101366.19;;;2.57;100.00
58955;BME280;45815;52.334;5.024;2023-03-15T03:13:45;101359.03;;;2.52;100.00
58955;BME280;45815;52.334;5.024;2023-03-15T03:16:10;101375.50;;;2.53;100.00
58955;BME280;45815;52.334;5.024;2023-03-15T03:18:36;101377.09;;;2.51;100.00
58955;BME280;45815;52.334;5.024;2023-03-15T03:21:05;101383.72;;;2.46;100.00
58955;BME280;45815;52.334;5.024;2023-03-15T03:23:32;101393.78;;;2.41;100.00
58955;BME280;45815;52.334;5.024;2023-03-15T03:26:01;101397.69;;;2.35;100.00
58955;BME280;45815;52.334;5.024;2023-03-15T03:28:29;101402.78;;;2.33;100.00
58955;BME280;45815;52.334;5.024;2023-03-15T03:30:56;101407.84;;;2.31;100.00
58955;BME280;45815;52.334;5.024;2023-03-15T03:33:22;101412.97;;;2.30;100.00
58955;BME280;45815;52.334;5.024;2023-03-15T03:35:49;101406.69;;;2.26;100.00
58955;BME280;45815;52.334;5.024;2023-03-15T03:38:15;101418.47;;;2.21;100.00
58955;BME280;45815;52.334;5.024;2023-03-15T03:40:46;101420.06;;;2.19;100.00
58955;BME280;45815;52.334;5.024;2023-03-15T03:43:11;101425.06;;;2.16;100.00
58955;BME280;45815;52.334;5.024;2023-03-15T03:45:36;101427.34;;;2.11;100.00
58955;BME280;45815;52.334;5.024;2023-03-15T03:48:03;101433.25;;;2.09;100.00
58955;BME280;45815;52.334;5.024;2023-03-15T03:50:31;101433.72;;;2.03;100.00
58955;BME280;45815;52.334;5.024;2023-03-15T03:52:57;101447.69;;;2.05;100.00
58955;BME280;45815;52.334;5.024;2023-03-15T03:55:27;101441.78;;;2.08;100.00
58955;BME280;45815;52.334;5.024;2023-03-15T03:57:53;101437.53;;;2.08;100.00
58955;BME280;45815;52.334;5.024;2023-03-15T04:00:34;101441.59;;;2.05;100.00
58955;BME280;45815;52.334;5.024;2023-03-15T04:03:00;101446.97;;;2.08;100.00
58955;BME280;45815;52.334;5.024;2023-03-15T04:05:27;101448.78;;;2.09;100.00
58955;BME280;45815;52.334;5.024;2023-03-15T04:07:53;101458.25;;;2.08;100.00
58955;BME280;45815;52.334;5.024;2023-03-15T04:10:18;101459.91;;;2.08;100.00
58955;BME280;45815;52.334;5.024;2023-03-15T04:12:52;101457.53;;;2.11;100.00
58955;BME280;45815;52.334;5.024;2023-03-15T04:15:18;101459.31;;;2.12;100.00
58955;BME280;45815;52.334;5.024;2023-03-15T04:17:43;101460.13;;;2.11;100.00
58955;BME280;45815;52.334;5.024;2023-03-15T04:20:09;101469.69;;;2.12;100.00
58955;BME280;45815;52.334;5.024;2023-03-15T04:22:38;101475.84;;;2.14;100.00
58955;BME280;45815;52.334;5.024;2023-03-15T04:25:04;101480.03;;;2.12;100.00
58955;BME280;45815;52.334;5.024;2023-03-15T04:27:56;101482.75;;;2.00;100.00
58955;BME280;45815;52.334;5.024;2023-03-15T04:30:52;101492.22;;;2.13;100.00
58955;BME280;45815;52.334;5.024;2023-03-15T04:33:43;101503.75;;;2.18;100.00
58955;BME280;45815;52.334;5.024;2023-03-15T04:36:31;101505.69;;;2.22;100.00
58955;BME280;45815;52.334;5.024;2023-03-15T04:39:29;101519.56;;;2.23;100.00
58955;BME280;45815;52.334;5.024;2023-03-15T04:42:19;101532.59;;;2.24;100.00
58955;BME280;45815;52.334;5.024;2023-03-15T04:44:50;101523.06;;;2.23;100.00
58955;BME280;45815;52.334;5.024;2023-03-15T04:47:34;101530.59;;;2.33;100.00
58955;BME280;45815;52.334;5.024;2023-03-15T04:50:21;101538.06;;;2.42;100.00
58955;BME280;45815;52.334;5.024;2023-03-15T04:53:08;101545.53;;;2.51;100.00
58955;BME280;45815;52.334;5.024;2023-03-15T04:55:47;101544.72;;;2.52;100.00
58955;BME280;45815;52.334;5.024;2023-03-15T04:58:20;101542.22;;;2.53;100.00
58955;BME280;45815;52.334;5.024;2023-03-15T05:01:07;101552.28;;;2.62;100.00
58955;BME280;45815;52.334;5.024;2023-03-15T05:03:32;101566.78;;;2.73;100.00
58955;BME280;45815;52.334;5.024;2023-03-15T05:06:27;101577.53;;;2.80;100.00
58955;BME280;45815;52.334;5.024;2023-03-15T05:09:24;101579.13;;;2.78;100.00
58955;BME280;45815;52.334;5.024;2023-03-15T05:12:08;101583.75;;;2.68;100.00
58955;BME280;45815;52.334;5.024;2023-03-15T05:15:00;101584.97;;;2.60;100.00
58955;BME280;45815;52.334;5.024;2023-03-15T05:17:44;101588.94;;;2.55;100.00
58955;BME280;45815;52.334;5.024;2023-03-15T05:20:33;101587.97;;;2.53;100.00
58955;BME280;45815;52.334;5.024;2023-03-15T05:23:09;101590.66;;;2.54;100.00
58955;BME280;45815;52.334;5.024;2023-03-15T05:25:55;101596.53;;;2.52;100.00
58955;BME280;45815;52.334;5.024;2023-03-15T05:28:43;101596.41;;;2.64;100.00
58955;BME280;45815;52.334;5.024;2023-03-15T05:31:26;101593.75;;;2.62;100.00
58955;BME280;45815;52.334;5.024;2023-03-15T05:34:27;101588.34;;;2.59;100.00
58955;BME280;45815;52.334;5.024;2023-03-15T05:37:23;101582.81;;;2.53;100.00
58955;BME280;45815;52.334;5.024;2023-03-15T05:40:02;101589.16;;;2.58;100.00
58955;BME280;45815;52.334;5.024;2023-03-15T05:42:47;101586.75;;;2.61;100.00
58955;BME280;45815;52.334;5.024;2023-03-15T05:45:18;101587.16;;;2.54;100.00
58955;BME280;45815;52.334;5.024;2023-03-15T05:48:22;101585.41;;;2.53;100.00
58955;BME280;45815;52.334;5.024;2023-03-15T05:51:01;101594.25;;;2.57;100.00
58955;BME280;45815;52.334;5.024;2023-03-15T05:53:59;101599.28;;;2.68;100.00
58955;BME280;45815;52.334;5.024;2023-03-15T05:56:40;101605.66;;;2.73;100.00
58955;BME280;45815;52.334;5.024;2023-03-15T05:59:37;101606.75;;;2.77;100.00
58955;BME280;45815;52.334;5.024;2023-03-15T06:02:18;101603.06;;;2.73;100.00
58955;BME280;45815;52.334;5.024;2023-03-15T06:04:57;101610.25;;;2.78;100.00
58955;BME280;45815;52.334;5.024;2023-03-15T06:07:25;101617.03;;;2.75;100.00
58955;BME280;45815;52.334;5.024;2023-03-15T06:09:50;101631.59;;;2.73;100.00
58955;BME280;45815;52.334;5.024;2023-03-15T06:12:16;101629.31;;;2.65;100.00
58955;BME280;45815;52.334;5.024;2023-03-15T06:14:42;101631.00;;;2.64;100.00
58955;BME280;45815;52.334;5.024;2023-03-15T06:17:07;101627.34;;;2.61;100.00
58955;BME280;45815;52.334;5.024;2023-03-15T06:19:33;101633.41;;;2.61;100.00
58955;BME280;45815;52.334;5.024;2023-03-15T06:21:59;101645.78;;;2.65;100.00
58955;BME280;45815;52.334;5.024;2023-03-15T06:24:34;101647.94;;;2.72;100.00
58955;BME280;45815;52.334;5.024;2023-03-15T06:26:59;101647.34;;;2.77;100.00
58955;BME280;45815;52.334;5.024;2023-03-15T06:29:25;101654.03;;;2.73;100.00
58955;BME280;45815;52.334;5.024;2023-03-15T06:31:53;101664.00;;;2.67;100.00
58955;BME280;45815;52.334;5.024;2023-03-15T06:34:18;101668.91;;;2.62;100.00
58955;BME280;45815;52.334;5.024;2023-03-15T06:36:45;101672.69;;;2.67;100.00
58955;BME280;45815;52.334;5.024;2023-03-15T06:39:11;101663.81;;;2.64;100.00
58955;BME280;45815;52.334;5.024;2023-03-15T06:41:38;101677.88;;;2.67;100.00
58955;BME280;45815;52.334;5.024;2023-03-15T06:44:09;101685.25;;;2.61;100.00
58955;BME280;45815;52.334;5.024;2023-03-15T06:46:36;101686.06;;;2.60;100.00
58955;BME280;45815;52.334;5.024;2023-03-15T06:49:02;101687.72;;;2.60;100.00
58955;BME280;45815;52.334;5.024;2023-03-15T06:51:28;101686.84;;;2.59;100.00
58955;BME280;45815;52.334;5.024;2023-03-15T06:53:53;101690.94;;;2.56;100.00
58955;BME280;45815;52.334;5.024;2023-03-15T06:56:20;101700.59;;;2.58;100.00
58955;BME280;45815;52.334;5.024;2023-03-15T06:58:45;101692.13;;;2.61;100.00
58955;BME280;45815;52.334;5.024;2023-03-15T07:01:12;101704.38;;;2.63;100.00
58955;BME280;45815;52.334;5.024;2023-03-15T07:03:38;101705.97;;;2.61;100.00
58955;BME280;45815;52.334;5.024;2023-03-15T07:06:04;101706.88;;;2.62;100.00
58955;BME280;45815;52.334;5.024;2023-03-15T07:08:29;101710.56;;;2.65;100.00
58955;BME280;45815;52.334;5.024;2023-03-15T07:10:55;101707.28;;;2.68;100.00
58955;BME280;45815;52.334;5.024;2023-03-15T07:13:20;101708.47;;;2.73;100.00
58955;BME280;45815;52.334;5.024;2023-03-15T07:15:55;101719.84;;;2.75;100.00
58955;BME280;45815;52.334;5.024;2023-03-15T07:18:22;101724.91;;;2.87;100.00
58955;BME280;45815;52.334;5.024;2023-03-15T07:20:57;101721.72;;;2.91;100.00
58955;BME280;45815;52.334;5.024;2023-03-15T07:23:23;101730.50;;;2.93;100.00
58955;BME280;45815;52.334;5.024;2023-03-15T07:25:48;101734.09;;;2.95;100.00
58955;BME280;45815;52.334;5.024;2023-03-15T07:28:14;101733.56;;;3.01;100.00
58955;BME280;45815;52.334;5.024;2023-03-15T07:30:39;101716.91;;;2.97;100.00
58955;BME280;45815;52.334;5.024;2023-03-15T07:33:10;101743.72;;;3.11;100.00
58955;BME280;45815;52.334;5.024;2023-03-15T07:35:35;101742.53;;;3.06;100.00
58955;BME280;45815;52.334;5.024;2023-03-15T07:38:01;101750.78;;;3.13;100.00
58955;BME280;45815;52.334;5.024;2023-03-15T07:40:26;101743.41;;;3.20;100.00
58955;BME280;45815;52.334;5.024;2023-03-15T07:42:52;101752.59;;;3.28;100.00
58955;BME280;45815;52.334;5.024;2023-03-15T07:45:17;101754.66;;;3.33;100.00
58955;BME280;45815;52.334;5.024;2023-03-15T07:47:43;101758.91;;;3.46;100.00
58955;BME280;45815;52.334;5.024;2023-03-15T07:50:09;101762.50;;;3.48;100.00
58955;BME280;45815;52.334;5.024;2023-03-15T07:52:36;101771.16;;;3.62;100.00
58955;BME280;45815;52.334;5.024;2023-03-15T07:55:02;101767.34;;;3.70;100.00
58955;BME280;45815;52.334;5.024;2023-03-15T07:57:29;101778.59;;;3.84;100.00
58955;BME280;45815;52.334;5.024;2023-03-15T07:59:54;101770.88;;;3.86;100.00
58955;BME280;45815;52.334;5.024;2023-03-15T08:02:20;101786.13;;;3.94;100.00
58955;BME280;45815;52.334;5.024;2023-03-15T08:04:45;101782.09;;;3.99;100.00
58955;BME280;45815;52.334;5.024;2023-03-15T08:07:11;101784.63;;;4.13;100.00
58955;BME280;45815;52.334;5.024;2023-03-15T08:09:36;101785.19;;;4.22;100.00
58955;BME280;45815;52.334;5.024;2023-03-15T08:12:04;101788.50;;;4.34;100.00
58955;BME280;45815;52.334;5.024;2023-03-15T08:14:30;101787.06;;;4.39;100.00
58955;BME280;45815;52.334;5.024;2023-03-15T08:16:55;101793.19;;;4.55;100.00
58955;BME280;45815;52.334;5.024;2023-03-15T08:19:21;101793.09;;;4.68;100.00
58955;BME280;45815;52.334;5.024;2023-03-15T08:21:46;101797.75;;;4.89;100.00
58955;BME280;45815;52.334;5.024;2023-03-15T08:24:12;101794.41;;;5.06;100.00
58955;BME280;45815;52.334;5.024;2023-03-15T08:26:37;101792.31;;;5.15;100.00
58955;BME280;45815;52.334;5.024;2023-03-15T08:29:03;101782.53;;;5.11;100.00
58955;BME280;45815;52.334;5.024;2023-03-15T08:31:29;101801.44;;;5.23;100.00
58955;BME280;45815;52.334;5.024;2023-03-15T08:33:55;101802.94;;;5.35;100.00
58955;BME280;45815;52.334;5.024;2023-03-15T08:36:20;101804.59;;;5.49;100.00
58955;BME280;45815;52.334;5.024;2023-03-15T08:38:46;101799.00;;;5.58;100.00
58955;BME280;45815;52.334;5.024;2023-03-15T08:41:11;101809.34;;;5.72;100.00
58955;BME280;45815;52.334;5.024;2023-03-15T08:43:37;101806.00;;;5.75;100.00
58955;BME280;45815;52.334;5.024;2023-03-15T08:46:02;101814.47;;;5.87;100.00
58955;BME280;45815;52.334;5.024;2023-03-15T08:48:28;101813.94;;;5.93;100.00
58955;BME280;45815;52.334;5.024;2023-03-15T08:50:54;101816.56;;;6.09;100.00
58955;BME280;45815;52.334;5.024;2023-03-15T08:53:19;101817.53;;;6.28;100.00
58955;BME280;45815;52.334;5.024;2023-03-15T08:55:46;101811.00;;;6.36;100.00
58955;BME280;45815;52.334;5.024;2023-03-15T08:58:12;101812.84;;;6.55;100.00
58955;BME280;45815;52.334;5.024;2023-03-15T09:00:38;101814.97;;;6.80;100.00
58955;BME280;45815;52.334;5.024;2023-03-15T09:03:03;101813.84;;;6.93;100.00
58955;BME280;45815;52.334;5.024;2023-03-15T09:05:29;101816.13;;;7.21;100.00
58955;BME280;45815;52.334;5.024;2023-03-15T09:07:54;101807.69;;;7.27;100.00
58955;BME280;45815;52.334;5.024;2023-03-15T09:10:20;101806.44;;;7.56;100.00
58955;BME280;45815;52.334;5.024;2023-03-15T09:12:49;101807.88;;;7.87;100.00
58955;BME280;45815;52.334;5.024;2023-03-15T09:15:15;101805.66;;;7.96;100.00
58955;BME280;45815;52.334;5.024;2023-03-15T09:17:41;101814.47;;;8.17;100.00
58955;BME280;45815;52.334;5.024;2023-03-15T09:20:09;101806.56;;;8.16;100.00
58955;BME280;45815;52.334;5.024;2023-03-15T09:22:48;101807.44;;;8.36;100.00
58955;BME280;45815;52.334;5.024;2023-03-15T09:25:14;101801.69;;;8.43;100.00
58955;BME280;45815;52.334;5.024;2023-03-15T09:27:39;101804.50;;;8.69;100.00
58955;BME280;45815;52.334;5.024;2023-03-15T09:30:05;101804.13;;;9.01;100.00
58955;BME280;45815;52.334;5.024;2023-03-15T09:32:31;101791.25;;;9.07;100.00
58955;BME280;45815;52.334;5.024;2023-03-15T09:35:03;101795.44;;;9.47;100.00
58955;BME280;45815;52.334;5.024;2023-03-15T09:37:30;101810.47;;;9.74;100.00
58955;BME280;45815;52.334;5.024;2023-03-15T09:39:56;101806.47;;;9.84;100.00
58955;BME280;45815;52.334;5.024;2023-03-15T09:42:51;101802.00;;;9.81;100.00
58955;BME280;45815;52.334;5.024;2023-03-15T09:47:55;101811.91;;;9.90;100.00
58955;BME280;45815;52.334;5.024;2023-03-15T09:50:35;101815.31;;;9.87;100.00
58955;BME280;45815;52.334;5.024;2023-03-15T09:53:13;101812.06;;;9.93;100.00
58955;BME280;45815;52.334;5.024;2023-03-15T09:55:41;101808.47;;;9.91;100.00
58955;BME280;45815;52.334;5.024;2023-03-15T09:58:20;101806.19;;;10.00;100.00
58955;BME280;45815;52.334;5.024;2023-03-15T10:00:51;101802.25;;;10.11;100.00
58955;BME280;45815;52.334;5.024;2023-03-15T10:06:01;101810.59;;;10.25;100.00
58955;BME280;45815;52.334;5.024;2023-03-15T10:08:29;101799.78;;;10.40;100.00
58955;BME280;45815;52.334;5.024;2023-03-15T10:24:14;101830.03;;;10.54;100.00
58955;BME280;45815;52.334;5.024;2023-03-15T10:26:42;101824.78;;;10.54;100.00
58955;BME280;45815;52.334;5.024;2023-03-15T10:29:14;101828.72;;;10.67;100.00
58955;BME280;45815;52.334;5.024;2023-03-15T10:31:43;101831.03;;;10.84;100.00
58955;BME280;45815;52.334;5.024;2023-03-15T10:34:11;101836.41;;;10.87;100.00
58955;BME280;45815;52.334;5.024;2023-03-15T10:36:43;101842.78;;;10.95;100.00
58955;BME280;45815;52.334;5.024;2023-03-15T10:39:10;101837.66;;;10.98;100.00
58955;BME280;45815;52.334;5.024;2023-03-15T10:41:41;101849.72;;;10.93;100.00
58955;BME280;45815;52.334;5.024;2023-03-15T10:44:22;101844.59;;;10.96;100.00
58955;BME280;45815;52.334;5.024;2023-03-15T10:47:06;101855.97;;;10.96;100.00
58955;BME280;45815;52.334;5.024;2023-03-15T10:49:38;101865.78;;;11.02;100.00
58955;BME280;45815;52.334;5.024;2023-03-15T10:52:04;101868.16;;;10.94;100.00
58955;BME280;45815;52.334;5.024;2023-03-15T10:54:31;101867.59;;;11.03;100.00
58955;BME280;45815;52.334;5.024;2023-03-15T10:57:10;101871.31;;;11.10;99.60
58955;BME280;45815;52.334;5.024;2023-03-15T10:59:37;101867.16;;;11.44;100.00
58955;BME280;45815;52.334;5.024;2023-03-15T11:02:19;101874.53;;;11.55;96.07
58955;BME280;45815;52.334;5.024;2023-03-15T11:05:16;101884.28;;;11.31;91.63
58955;BME280;45815;52.334;5.024;2023-03-15T11:07:54;101884.72;;;11.17;89.33
58955;BME280;45815;52.334;5.024;2023-03-15T11:10:21;101883.53;;;11.35;97.41
58955;BME280;45815;52.334;5.024;2023-03-15T11:12:47;101874.97;;;11.40;97.60
58955;BME280;45815;52.334;5.024;2023-03-15T11:15:14;101882.69;;;11.36;93.17
58955;BME280;45815;52.334;5.024;2023-03-15T11:17:42;101883.00;;;11.45;95.06
58955;BME280;45815;52.334;5.024;2023-03-15T11:20:26;101886.28;;;11.39;94.32
58955;BME280;45815;52.334;5.024;2023-03-15T11:22:55;101884.03;;;11.79;97.75
58955;BME280;45815;52.334;5.024;2023-03-15T11:25:25;101879.66;;;12.07;93.53
58955;BME280;45815;52.334;5.024;2023-03-15T11:27:54;101891.88;;;12.35;95.71
58955;BME280;45815;52.334;5.024;2023-03-15T11:30:26;101880.19;;;12.57;91.45
58955;BME280;45815;52.334;5.024;2023-03-15T11:32:53;101887.06;;;12.83;92.80
58955;BME280;45815;52.334;5.024;2023-03-15T11:35:27;101886.44;;;12.94;84.19
58955;BME280;45815;52.334;5.024;2023-03-15T11:38:00;101891.44;;;13.16;88.19
58955;BME280;45815;52.334;5.024;2023-03-15T11:40:38;101895.00;;;13.18;79.99
58955;BME280;45815;52.334;5.024;2023-03-15T11:43:32;101894.13;;;13.19;80.92
58955;BME280;45815;52.334;5.024;2023-03-15T11:51:26;101885.97;;;14.22;82.99
58955;BME280;45815;52.334;5.024;2023-03-15T11:59:22;101883.16;;;14.55;74.70
58955;BME280;45815;52.334;5.024;2023-03-15T12:07:23;101890.09;;;14.97;66.11
58955;BME280;45815;52.334;5.024;2023-03-15T12:20:26;101894.38;;;14.91;61.99
58955;BME280;45815;52.334;5.024;2023-03-15T12:23:18;101889.84;;;15.34;63.46
58955;BME280;45815;52.334;5.024;2023-03-15T12:26:04;101898.03;;;15.51;58.49
58955;BME280;45815;52.334;5.024;2023-03-15T12:31:11;101886.09;;;15.77;58.33
58955;BME280;45815;52.334;5.024;2023-03-15T12:33:51;101897.13;;;16.08;52.60
58955;BME280;45815;52.334;5.024;2023-03-15T12:36:36;101892.78;;;16.13;53.31
58955;BME280;45815;52.334;5.024;2023-03-15T12:41:46;101890.53;;;16.44;52.14
58955;BME280;45815;52.334;5.024;2023-03-15T12:47:00;101887.44;;;16.09;50.64
58955;BME280;45815;52.334;5.024;2023-03-15T12:49:27;101893.06;;;16.35;53.93
58955;BME280;45815;52.334;5.024;2023-03-15T12:51:57;101885.78;;;16.20;48.99
58955;BME280;45815;52.334;5.024;2023-03-15T12:54:25;101885.13;;;16.35;49.23
58955;BME280;45815;52.334;5.024;2023-03-15T12:57:02;101893.34;;;16.61;46.94
58955;BME280;45815;52.334;5.024;2023-03-15T13:02:48;101869.28;;;17.28;47.44
58955;BME280;45815;52.334;5.024;2023-03-15T13:05:27;101863.06;;;17.26;45.47
58955;BME280;45815;52.334;5.024;2023-03-15T13:07:55;101867.53;;;17.35;44.82
58955;BME280;45815;52.334;5.024;2023-03-15T13:11:04;101853.41;;;17.36;42.44
58955;BME280;45815;52.334;5.024;2023-03-15T13:19:12;101864.00;;;17.33;41.47
58955;BME280;45815;52.334;5.024;2023-03-15T13:25:05;101862.34;;;17.50;42.05
58955;BME280;45815;52.334;5.024;2023-03-15T13:28:39;101866.09;;;17.80;40.82
58955;BME280;45815;52.334;5.024;2023-03-15T13:30:41;101855.25;;;17.50;40.34
58955;BME280;45815;52.334;5.024;2023-03-15T13:33:29;101860.38;;;17.24;40.91
58955;BME280;45815;52.334;5.024;2023-03-15T13:35:58;101869.34;;;17.42;41.69
58955;BME280;45815;52.334;5.024;2023-03-15T13:40:51;101868.22;;;17.11;41.02
58955;BME280;45815;52.334;5.024;2023-03-15T13:43:17;101863.28;;;16.59;40.27
58955;BME280;45815;52.334;5.024;2023-03-15T13:45:43;101865.78;;;16.45;41.25
58955;BME280;45815;52.334;5.024;2023-03-15T13:48:09;101864.53;;;16.14;42.67
58955;BME280;45815;52.334;5.024;2023-03-15T13:50:36;101857.53;;;16.19;44.62
58955;BME280;45815;52.334;5.024;2023-03-15T13:53:02;101877.78;;;16.15;42.70
58955;BME280;45815;52.334;5.024;2023-03-15T13:55:32;101882.06;;;16.06;43.04
58955;BME280;45815;52.334;5.024;2023-03-15T13:57:59;101879.25;;;15.92;43.84
58955;BME280;45815;52.334;5.024;2023-03-15T14:00:30;101877.44;;;15.88;43.28
58955;BME280;45815;52.334;5.024;2023-03-15T14:03:05;101877.50;;;15.94;42.17
58955;BME280;45815;52.334;5.024;2023-03-15T14:05:33;101872.03;;;15.78;42.74
58955;BME280;45815;52.334;5.024;2023-03-15T14:08:27;101868.53;;;15.82;44.82
58955;BME280;45815;52.334;5.024;2023-03-15T14:11:18;101874.19;;;15.48;43.99
58955;BME280;45815;52.334;5.024;2023-03-15T14:13:57;101862.88;;;15.05;45.02
58955;BME280;45815;52.334;5.024;2023-03-15T14:16:43;101870.09;;;15.13;44.76
58955;BME280;45815;52.334;5.024;2023-03-15T14:19:24;101871.09;;;15.22;43.79
58955;BME280;45815;52.334;5.024;2023-03-15T14:21:53;101873.53;;;15.09;45.09
58955;BME280;45815;52.334;5.024;2023-03-15T14:26:50;101866.41;;;14.55;46.04